Terminal Aerodrome Forecast
Issued by NWS

Home | Current Version | Previous Version | Text Only | Print | Product List | Glossary On
Versions: 1 2 3 4 5 6 7 8 9 10 11 12 13 14 15 16 17 18 19 20 21
000
FTAK31 PAJN 271124
TAFAKT
TAF
PAKT 271124Z 2712/2812 19005KT P6SM -SHRA SCT040 OVC060
     FM272200 13010KT P6SM VCSH OVC050
     FM280600 16008KT P6SM BKN050 BKN070
      AMD LTD TO CLD VIS AND WIND 2712/2715=

USA.gov is the U.S. government's official web portal to all federal, state and local government web resources and services.